Terminal Aerodrome Forecast
Issued by NWS

Home | Current Version | Previous Version | Text Only | Print | Product List | Glossary On
Versions: 1 2 3 4 5 6 7 8 9 10 11 12 13 14
000
FTUS43 KMQT 190520
TAFIWD
TAF
KIWD 190520Z 1906/2006 26003KT P6SM BKN200
     FM190700 25004KT P6SM SCT200
     FM191800 29008KT P6SM FEW250
     FM200100 24004KT P6SM FEW150=

USA.gov is the U.S. government's official web portal to all federal, state and local government web resources and services.